createdAt,value
2017-12-16T00:01:38.186Z,3.03
2017-12-16T00:04:07.900Z,5.72
2017-12-16T00:06:36.884Z,5.28
2017-12-16T00:09:06.563Z,3.33
2017-12-16T00:11:35.258Z,4.18
2017-12-16T00:14:03.428Z,3.95
2017-12-16T00:16:31.662Z,6.78
2017-12-16T00:19:00.741Z,6.85
2017-12-16T00:21:28.882Z,8.50
2017-12-16T00:23:57.998Z,9.18
2017-12-16T00:26:26.183Z,4.20
2017-12-16T00:28:55.868Z,4.65
2017-12-16T00:31:24.919Z,5.10
2017-12-16T00:33:53.070Z,10.68
2017-12-16T00:36:21.335Z,3.58
2017-12-16T00:38:49.497Z,4.85
2017-12-16T00:41:17.676Z,7.43
2017-12-16T00:43:45.829Z,5.20
2017-12-16T00:46:14.013Z,6.72
2017-12-16T00:48:42.170Z,4.32
2017-12-16T00:51:10.325Z,9.35
2017-12-16T00:53:38.491Z,7.65
2017-12-16T00:56:07.002Z,8.77
2017-12-16T00:58:35.202Z,8.65
2017-12-16T01:01:04.406Z,10.50
2017-12-16T01:03:33.395Z,5.35
2017-12-16T01:06:01.666Z,4.68
2017-12-16T01:08:29.828Z,4.90
2017-12-16T01:11:00.152Z,5.07
2017-12-16T01:13:29.074Z,2.65
2017-12-16T01:15:57.235Z,4.80
2017-12-16T01:18:25.447Z,9.55
2017-12-16T01:20:54.109Z,7.65
2017-12-16T01:23:22.514Z,5.40
2017-12-16T01:25:50.756Z,8.48
2017-12-16T01:28:19.913Z,11.18
2017-12-16T01:30:48.078Z,10.65
2017-12-16T01:33:16.243Z,7.37
2017-12-16T01:35:56.301Z,4.43
2017-12-16T01:38:44.154Z,7.60
2017-12-16T01:41:12.306Z,5.65
2017-12-16T01:43:41.221Z,15.50
2017-12-16T01:46:09.373Z,7.07
2017-12-16T01:48:37.535Z,7.60
2017-12-16T01:51:05.764Z,6.47
2017-12-16T01:53:34.679Z,4.75
2017-12-16T01:56:03.425Z,11.82
2017-12-16T01:58:32.365Z,5.78
2017-12-16T02:01:00.538Z,3.72
2017-12-16T02:03:28.710Z,11.98
2017-12-16T02:05:58.293Z,5.10
2017-12-16T02:08:27.201Z,4.95
2017-12-16T02:10:55.378Z,4.80
2017-12-16T02:13:25.300Z,6.65
2017-12-16T02:15:53.560Z,3.78
2017-12-16T02:18:22.175Z,4.70
2017-12-16T02:20:50.313Z,8.82
2017-12-16T02:23:19.381Z,9.85
2017-12-16T02:25:47.542Z,11.52
2017-12-16T02:28:16.246Z,7.97
2017-12-16T02:30:44.394Z,6.53
2017-12-16T02:33:13.255Z,14.45
2017-12-16T02:35:44.410Z,16.35
2017-12-16T02:38:12.566Z,16.40
2017-12-16T02:40:41.172Z,10.98
2017-12-16T02:43:09.318Z,8.98
2017-12-16T02:45:38.382Z,10.82
2017-12-16T02:48:07.310Z,7.53
2017-12-16T02:50:35.475Z,10.02
2017-12-16T02:53:03.624Z,5.57
2017-12-16T02:55:31.922Z,9.70
2017-12-16T02:58:00.078Z,9.18
2017-12-16T03:00:28.994Z,8.40
2017-12-16T03:02:57.148Z,10.60
2017-12-16T03:05:25.424Z,8.63
2017-12-16T03:07:53.586Z,9.90
2017-12-16T03:10:21.750Z,10.52
2017-12-16T03:12:49.919Z,10.25
2017-12-16T03:15:18.696Z,11.38
2017-12-16T03:17:47.740Z,13.65
2017-12-16T03:20:17.382Z,12.68
2017-12-16T03:22:45.531Z,8.20
2017-12-16T03:25:21.427Z,14.63
2017-12-16T03:27:51.201Z,14.90
2017-12-16T03:30:19.363Z,13.18
2017-12-16T03:32:48.321Z,18.25
2017-12-16T03:35:16.649Z,15.35
2017-12-16T03:37:44.815Z,19.30
2017-12-16T03:40:12.993Z,16.65
2017-12-16T03:42:42.328Z,20.02
2017-12-16T03:45:14.857Z,13.55
2017-12-16T03:47:43.004Z,15.63
2017-12-16T03:50:12.030Z,15.95
2017-12-16T03:52:40.178Z,14.68
2017-12-16T03:55:09.286Z,14.82
2017-12-16T03:57:38.214Z,17.05
2017-12-16T04:00:07.069Z,10.82
2017-12-16T04:02:35.651Z,15.05
2017-12-16T04:05:05.572Z,10.40
2017-12-16T04:07:33.749Z,10.95
2017-12-16T04:10:01.904Z,11.80
2017-12-16T04:12:30.057Z,9.43
2017-12-16T04:14:58.277Z,12.37
2017-12-16T04:17:26.446Z,9.80
2017-12-16T04:19:54.597Z,11.95
2017-12-16T04:22:23.741Z,12.37
2017-12-16T04:24:51.992Z,14.75
2017-12-16T04:27:21.178Z,17.65
2017-12-16T04:29:50.092Z,11.85
2017-12-16T04:32:18.803Z,8.25
2017-12-16T04:34:46.955Z,10.93
2017-12-16T04:37:15.106Z,10.45
2017-12-16T04:39:43.280Z,7.70
2017-12-16T04:42:11.439Z,6.28
2017-12-16T04:44:42.009Z,7.75
2017-12-16T04:47:11.208Z,8.68
2017-12-16T04:49:39.364Z,9.65
2017-12-16T04:52:07.506Z,7.12
2017-12-16T04:54:36.296Z,5.55
2017-12-16T04:57:04.441Z,6.40
2017-12-16T04:59:33.241Z,3.75
2017-12-16T05:02:01.398Z,3.30
2017-12-16T05:04:29.589Z,3.95
2017-12-16T05:07:01.496Z,3.78
2017-12-16T05:09:29.767Z,6.45
2017-12-16T05:11:57.962Z,4.87
2017-12-16T05:14:26.562Z,6.10
2017-12-16T05:16:55.408Z,6.62
2017-12-16T05:19:23.571Z,4.68
2017-12-16T05:21:51.721Z,5.45
2017-12-16T05:24:21.014Z,3.30
2017-12-16T05:26:52.211Z,5.32
2017-12-16T05:29:20.666Z,4.60
2017-12-16T05:31:48.817Z,13.40
2017-12-16T05:34:17.449Z,6.87
2017-12-16T05:36:46.459Z,4.55
2017-12-16T05:39:14.995Z,6.03
2017-12-16T05:41:43.139Z,5.47
2017-12-16T05:44:11.303Z,7.20
2017-12-16T05:46:42.511Z,5.40
2017-12-16T05:49:10.781Z,4.87
2017-12-16T05:51:39.799Z,6.95
2017-12-16T05:54:07.963Z,6.50
2017-12-16T05:56:36.225Z,8.65
2017-12-16T05:59:04.378Z,8.40
2017-12-16T06:01:32.624Z,13.35
2017-12-16T06:04:00.802Z,10.13
2017-12-16T06:06:30.055Z,16.55
2017-12-16T06:08:58.986Z,10.25
2017-12-16T06:11:27.683Z,10.98
2017-12-16T06:13:55.849Z,9.57
2017-12-16T06:16:27.173Z,8.55
2017-12-16T06:18:56.145Z,9.23
2017-12-16T06:21:25.070Z,9.23
2017-12-16T06:23:54.926Z,10.30
2017-12-16T06:26:23.141Z,10.27
2017-12-16T06:28:51.307Z,7.82
2017-12-16T06:31:19.480Z,13.38
2017-12-16T06:33:47.934Z,9.73
2017-12-16T06:36:16.078Z,11.50
2017-12-16T06:38:44.267Z,8.90
2017-12-16T06:41:12.446Z,10.57
2017-12-16T06:43:41.183Z,9.18
2017-12-16T06:46:12.614Z,10.65
2017-12-16T06:48:40.778Z,15.77
2017-12-16T06:51:09.807Z,10.90
2017-12-16T06:53:37.962Z,7.80
2017-12-16T06:56:06.966Z,10.05
2017-12-16T06:58:35.122Z,10.27
2017-12-16T07:01:04.037Z,9.23
2017-12-16T07:03:33.763Z,7.25
2017-12-16T07:06:02.930Z,7.10
2017-12-16T07:08:31.104Z,10.38
2017-12-16T07:10:59.266Z,9.63
2017-12-16T07:13:27.818Z,10.45
2017-12-16T07:15:56.043Z,9.45
2017-12-16T07:18:24.802Z,7.62
2017-12-16T07:20:52.962Z,12.80
2017-12-16T07:23:21.130Z,16.12
2017-12-16T07:25:49.376Z,16.05
2017-12-16T07:28:18.218Z,19.00
2017-12-16T07:30:48.094Z,11.25
2017-12-16T07:33:16.262Z,11.27
2017-12-16T07:35:44.528Z,14.18
2017-12-16T07:38:16.884Z,11.93
2017-12-16T07:40:45.833Z,10.20
2017-12-16T07:43:13.984Z,12.27
2017-12-16T07:45:42.138Z,13.05
2017-12-16T07:48:10.290Z,11.63
2017-12-16T07:50:39.358Z,9.85
2017-12-16T07:53:07.515Z,11.15
2017-12-16T07:55:38.562Z,14.25
2017-12-16T07:58:07.585Z,9.30
2017-12-16T08:00:35.737Z,9.95
2017-12-16T08:03:04.114Z,13.68
2017-12-16T08:05:35.506Z,18.73
2017-12-16T08:08:03.824Z,12.45
2017-12-16T08:10:31.977Z,12.55
2017-12-16T08:13:00.143Z,13.43
2017-12-16T08:15:28.387Z,11.90
2017-12-16T08:17:57.342Z,11.98
2017-12-16T08:20:25.519Z,10.23
2017-12-16T08:22:53.697Z,11.18
2017-12-16T08:25:21.913Z,9.52
2017-12-16T08:27:50.067Z,5.90
2017-12-16T08:30:19.002Z,5.72
2017-12-16T08:32:47.176Z,5.82
2017-12-16T08:35:15.431Z,5.57
2017-12-16T08:37:43.574Z,7.82
2017-12-16T08:40:11.801Z,6.75
2017-12-16T08:42:39.957Z,9.93
2017-12-16T08:45:11.217Z,9.82
2017-12-16T08:47:39.492Z,7.30
2017-12-16T08:50:07.645Z,7.43
2017-12-16T08:52:35.824Z,7.05
2017-12-16T08:55:04.167Z,7.50
2017-12-16T08:57:32.343Z,11.73
2017-12-16T09:00:00.482Z,9.15
2017-12-16T09:02:28.650Z,10.20
2017-12-16T09:04:56.811Z,7.80
2017-12-16T09:07:24.971Z,8.00
2017-12-16T09:09:53.124Z,11.23
2017-12-16T09:12:21.286Z,7.25
2017-12-16T09:14:49.437Z,5.97
2017-12-16T09:17:18.995Z,9.10
2017-12-16T09:19:47.593Z,8.73
2017-12-16T09:22:15.856Z,8.98
2017-12-16T09:24:44.783Z,8.88
2017-12-16T09:27:13.576Z,6.43
2017-12-16T09:29:41.729Z,7.65
2017-12-16T09:32:13.618Z,12.10
2017-12-16T09:34:41.827Z,24.80
2017-12-16T09:37:10.745Z,19.45
2017-12-16T09:39:38.907Z,12.30
2017-12-16T09:42:07.062Z,11.23
2017-12-16T09:44:35.218Z,7.65
2017-12-16T09:47:03.379Z,8.00
2017-12-16T09:49:31.553Z,8.40
2017-12-16T09:51:59.711Z,7.32
2017-12-16T09:54:27.856Z,6.85
2017-12-16T09:56:56.160Z,8.45
2017-12-16T09:59:24.303Z,8.30
2017-12-16T10:01:52.454Z,7.70
2017-12-16T10:04:20.653Z,10.00
2017-12-16T10:06:48.929Z,8.10
2017-12-16T10:09:17.076Z,10.25
2017-12-16T10:11:45.571Z,10.52
2017-12-16T10:14:13.710Z,10.40
2017-12-16T10:16:41.934Z,11.65
2017-12-16T10:19:10.094Z,11.73
2017-12-16T10:21:39.030Z,17.37
2017-12-16T10:24:07.182Z,15.20
2017-12-16T10:26:37.306Z,15.20
2017-12-16T10:29:05.465Z,15.20
2017-12-16T10:31:33.624Z,31.67
2017-12-16T10:34:01.794Z,14.63
2017-12-16T10:36:30.803Z,15.23
2017-12-16T10:38:59.904Z,12.05
2017-12-16T10:41:28.063Z,13.38
2017-12-16T10:43:56.982Z,16.30
2017-12-16T10:46:30.941Z,20.20
2017-12-16T10:48:59.114Z,15.55
2017-12-16T10:51:27.282Z,20.40
2017-12-16T10:53:55.486Z,15.25
2017-12-16T10:56:24.411Z,19.37
2017-12-16T10:58:52.582Z,17.87
2017-12-16T11:01:20.760Z,20.90
2017-12-16T11:03:48.913Z,20.88
2017-12-16T11:06:20.776Z,24.30
2017-12-16T11:08:49.054Z,30.52
2017-12-16T11:11:17.230Z,22.02
2017-12-16T11:13:45.385Z,19.65
2017-12-16T11:16:13.691Z,16.55
2017-12-16T11:18:41.866Z,21.15
2017-12-16T11:21:10.785Z,20.52
2017-12-16T11:23:38.943Z,18.37
2017-12-16T11:26:07.185Z,22.25
2017-12-16T11:28:35.343Z,19.45
2017-12-16T11:31:04.264Z,19.25
2017-12-16T11:33:32.407Z,18.27
2017-12-16T11:36:01.628Z,16.48
2017-12-16T11:38:29.799Z,16.65
2017-12-16T11:40:57.979Z,18.40
2017-12-16T11:43:26.137Z,14.20
2017-12-16T11:45:54.418Z,15.48
2017-12-16T11:48:22.599Z,16.30
2017-12-16T11:50:50.754Z,17.40
2017-12-16T11:53:20.082Z,16.83
2017-12-16T11:55:48.366Z,17.62
2017-12-16T11:58:16.525Z,16.10
2017-12-16T12:00:44.682Z,16.30
2017-12-16T12:03:12.839Z,17.30
2017-12-16T12:05:41.068Z,15.55
2017-12-16T12:08:09.241Z,16.05
2017-12-16T12:10:37.391Z,17.83
2017-12-16T12:13:05.758Z,17.00
2017-12-16T12:15:34.762Z,13.35
2017-12-16T12:18:02.920Z,13.95
2017-12-16T12:20:31.876Z,16.45
2017-12-16T12:23:00.191Z,14.95
2017-12-16T12:25:28.488Z,15.10
2017-12-16T12:27:56.663Z,13.73
2017-12-16T12:30:24.837Z,15.95
2017-12-16T12:32:53.010Z,14.13
2017-12-16T12:35:22.437Z,13.35
2017-12-16T12:37:51.418Z,11.55
2017-12-16T12:40:19.578Z,11.82
2017-12-16T12:42:47.735Z,13.90
2017-12-16T12:45:16.750Z,12.68
2017-12-16T12:47:44.979Z,12.50
2017-12-16T12:50:13.162Z,9.88
2017-12-16T12:52:41.317Z,13.68
2017-12-16T12:55:10.143Z,11.60
2017-12-16T12:57:39.062Z,9.90
2017-12-16T13:00:07.214Z,8.63
2017-12-16T13:02:36.162Z,13.80
2017-12-16T13:05:04.419Z,13.80
2017-12-16T13:07:32.571Z,11.98
2017-12-16T13:10:00.747Z,13.85
2017-12-16T13:12:28.894Z,13.85
2017-12-16T13:14:57.909Z,16.62
2017-12-16T13:17:27.280Z,11.85
2017-12-16T13:19:55.435Z,14.55
2017-12-16T13:22:23.574Z,11.52
2017-12-16T13:24:51.758Z,12.68
2017-12-16T13:27:19.906Z,12.98
2017-12-16T13:29:48.068Z,12.48
2017-12-16T13:32:18.250Z,16.10
2017-12-16T13:34:46.421Z,14.25
2017-12-16T13:37:14.574Z,13.98
2017-12-16T13:39:42.784Z,13.62
2017-12-16T13:42:10.909Z,10.65
2017-12-16T13:44:39.115Z,11.95
2017-12-16T13:47:09.810Z,10.65
2017-12-16T13:49:37.964Z,15.85
2017-12-16T13:52:06.889Z,15.25
2017-12-16T13:54:35.047Z,12.93
2017-12-16T13:57:03.523Z,15.70
2017-12-16T13:59:31.630Z,14.00
2017-12-16T14:01:59.790Z,11.18
2017-12-16T14:04:27.958Z,15.60
2017-12-16T14:06:56.113Z,11.70
2017-12-16T14:09:24.543Z,14.13
2017-12-16T14:11:52.687Z,14.98
2017-12-16T14:14:20.865Z,17.37
2017-12-16T14:16:49.187Z,11.57
2017-12-16T14:19:17.924Z,11.20
2017-12-16T14:21:46.110Z,16.15
2017-12-16T14:24:14.344Z,15.40
2017-12-16T14:26:42.633Z,14.10
2017-12-16T14:29:11.549Z,12.13
2017-12-16T14:31:40.133Z,9.18
2017-12-16T14:34:08.270Z,13.80
2017-12-16T14:36:37.210Z,16.77
2017-12-16T14:39:05.365Z,12.45
2017-12-16T14:41:33.528Z,13.40
2017-12-16T14:44:01.737Z,14.80
2017-12-16T14:46:29.898Z,15.52
2017-12-16T14:48:58.062Z,13.65
2017-12-16T14:51:26.215Z,13.98
2017-12-16T14:53:54.376Z,15.65
2017-12-16T14:56:23.376Z,13.10
2017-12-16T14:58:52.297Z,16.52
2017-12-16T15:01:20.464Z,14.82
2017-12-16T15:03:48.616Z,16.52
2017-12-16T15:06:17.649Z,18.23
2017-12-16T15:08:46.592Z,16.70
2017-12-16T15:11:14.762Z,19.10
2017-12-16T15:13:42.922Z,18.90
2017-12-16T15:16:11.065Z,18.30
2017-12-16T15:18:39.234Z,19.52
2017-12-16T15:21:07.386Z,17.90
2017-12-16T15:23:35.541Z,19.12
2017-12-16T15:26:03.735Z,15.75
2017-12-16T15:28:31.941Z,15.77
2017-12-16T15:31:01.386Z,16.77
2017-12-16T15:33:29.541Z,13.98
2017-12-16T15:35:57.708Z,18.85
2017-12-16T15:38:25.874Z,19.17
2017-12-16T15:40:54.023Z,19.75
2017-12-16T15:43:23.052Z,18.75
2017-12-16T15:45:51.218Z,22.75
2017-12-16T15:48:19.378Z,23.17
2017-12-16T15:50:48.328Z,20.88
2017-12-16T15:53:16.486Z,21.17
2017-12-16T15:55:45.503Z,20.00
2017-12-16T15:58:13.665Z,20.20
2017-12-16T16:00:42.594Z,18.17
2017-12-16T16:03:10.749Z,14.95
2017-12-16T16:05:39.722Z,18.92
2017-12-16T16:08:08.649Z,21.98
2017-12-16T16:10:37.184Z,19.75
2017-12-16T16:13:05.336Z,22.20
2017-12-16T16:15:34.586Z,20.05
2017-12-16T16:18:02.762Z,17.48
2017-12-16T16:20:30.906Z,15.32
2017-12-16T16:22:59.062Z,18.45
2017-12-16T16:25:27.287Z,14.45
2017-12-16T16:27:55.441Z,17.20
2017-12-16T16:30:23.589Z,14.87
2017-12-16T16:32:51.740Z,17.23
2017-12-16T16:35:19.985Z,15.73
2017-12-16T16:37:48.130Z,17.37
2017-12-16T16:40:17.055Z,16.55
2017-12-16T16:42:45.195Z,18.58
2017-12-16T16:45:14.166Z,15.82
2017-12-16T16:47:42.338Z,18.70
2017-12-16T16:50:10.494Z,17.10
2017-12-16T16:52:38.654Z,18.77
2017-12-16T16:55:13.942Z,19.27
2017-12-16T16:57:42.089Z,17.73
2017-12-16T17:00:10.264Z,17.83
2017-12-16T17:02:38.436Z,15.88
2017-12-16T17:05:06.681Z,15.73
2017-12-16T17:07:34.883Z,17.80
2017-12-16T17:10:03.033Z,16.30
2017-12-16T17:12:31.190Z,15.30
2017-12-16T17:15:00.100Z,16.48
2017-12-16T17:17:29.962Z,18.10
2017-12-16T17:19:58.106Z,15.80
2017-12-16T17:22:26.277Z,14.95
2017-12-16T17:24:56.582Z,17.23
2017-12-16T17:27:24.830Z,18.52
2017-12-16T17:29:53.764Z,17.98
2017-12-16T17:32:23.462Z,17.30
2017-12-16T17:34:51.725Z,22.10
2017-12-16T17:37:19.874Z,14.55
2017-12-16T17:39:48.799Z,18.35
2017-12-16T17:42:17.006Z,18.10
2017-12-16T17:44:45.170Z,21.40
2017-12-16T17:47:13.337Z,20.55
2017-12-16T17:49:41.496Z,24.48
2017-12-16T17:52:10.363Z,31.15
2017-12-16T17:54:39.303Z,29.77
2017-12-16T17:57:07.473Z,22.70
2017-12-16T17:59:35.654Z,15.15
2017-12-16T18:02:03.814Z,17.37
2017-12-16T18:04:31.979Z,14.18
2017-12-16T18:07:00.206Z,21.35
2017-12-16T18:09:28.358Z,19.85
2017-12-16T18:11:57.439Z,19.12
2017-12-16T18:14:25.589Z,16.10
2017-12-16T18:16:54.710Z,16.77
2017-12-16T18:19:22.912Z,15.82
2017-12-16T18:21:51.943Z,18.55
2017-12-16T18:24:20.097Z,15.68
2017-12-16T18:26:49.018Z,15.48
2017-12-16T18:29:17.198Z,21.00
2017-12-16T18:31:45.363Z,16.30
2017-12-16T18:34:13.763Z,15.10
2017-12-16T18:36:42.982Z,16.17
2017-12-16T18:39:11.594Z,17.37
2017-12-16T18:41:39.769Z,16.02
2017-12-16T18:44:07.935Z,19.90
2017-12-16T18:46:39.913Z,19.48
2017-12-16T18:49:08.078Z,18.30
2017-12-16T18:51:38.946Z,16.45
2017-12-16T18:54:07.113Z,16.80
2017-12-16T18:56:35.301Z,17.20
2017-12-16T18:59:03.458Z,21.23
2017-12-16T19:01:32.366Z,20.73
2017-12-16T19:04:00.523Z,16.45
2017-12-16T19:06:28.794Z,18.48
2017-12-16T19:08:56.950Z,18.60
2017-12-16T19:11:25.136Z,18.85
2017-12-16T19:13:53.307Z,18.15
2017-12-16T19:16:21.501Z,17.37
2017-12-16T19:18:49.653Z,15.90
2017-12-16T19:21:18.587Z,17.67
2017-12-16T19:23:46.794Z,16.15
2017-12-16T19:26:15.010Z,17.00
2017-12-16T19:28:43.172Z,21.83
2017-12-16T19:31:12.094Z,16.05
2017-12-16T19:33:40.248Z,18.83
2017-12-16T19:36:11.808Z,18.65
2017-12-16T19:38:43.568Z,20.02
2017-12-16T19:41:11.740Z,21.48
2017-12-16T19:43:40.950Z,20.65
2017-12-16T19:46:09.257Z,22.13
2017-12-16T19:48:37.479Z,18.42
2017-12-16T19:51:06.399Z,18.08
2017-12-16T19:53:34.577Z,20.25
2017-12-16T19:56:06.201Z,16.70
2017-12-16T19:58:34.347Z,15.75
2017-12-16T20:01:02.616Z,18.20
2017-12-16T20:03:30.816Z,16.67
2017-12-16T20:05:58.960Z,16.98
2017-12-16T20:08:27.153Z,15.43
2017-12-16T20:10:55.310Z,14.25
2017-12-16T20:13:23.462Z,15.82
2017-12-16T20:15:54.678Z,17.52
2017-12-16T20:18:24.811Z,23.98
2017-12-16T20:20:52.985Z,17.37
2017-12-16T20:23:21.160Z,15.02
2017-12-16T20:25:49.422Z,23.08
2017-12-16T20:28:17.591Z,16.08
2017-12-16T20:30:45.772Z,23.55
2017-12-16T20:33:13.940Z,19.60
2017-12-16T20:35:46.302Z,15.15
2017-12-16T20:38:15.217Z,21.92
2017-12-16T20:40:43.381Z,20.73
2017-12-16T20:43:11.542Z,24.65
2017-12-16T20:45:40.555Z,21.90
2017-12-16T20:48:08.716Z,25.15
2017-12-16T20:50:36.865Z,20.60
2017-12-16T20:53:05.042Z,21.50
2017-12-16T20:55:35.072Z,18.83
2017-12-16T20:58:03.294Z,18.23
2017-12-16T21:00:32.362Z,24.17
2017-12-16T21:03:00.521Z,26.25
2017-12-16T21:05:28.833Z,21.92
2017-12-16T21:07:57.027Z,23.73
2017-12-16T21:10:25.858Z,24.50
2017-12-16T21:12:53.997Z,25.17
2017-12-16T21:15:22.229Z,21.30
2017-12-16T21:17:50.394Z,23.05
2017-12-16T21:20:18.539Z,21.62
2017-12-16T21:22:46.715Z,22.17
2017-12-16T21:25:16.832Z,22.75
2017-12-16T21:27:45.017Z,24.30
2017-12-16T21:30:14.150Z,23.52
2017-12-16T21:32:42.347Z,23.67
2017-12-16T21:35:13.518Z,21.73
2017-12-16T21:37:41.655Z,23.42
2017-12-16T21:40:10.510Z,20.40
2017-12-16T21:42:39.431Z,21.42
2017-12-16T21:45:08.662Z,15.68
2017-12-16T21:47:37.741Z,19.65
2017-12-16T21:50:07.553Z,15.85
2017-12-16T21:52:35.771Z,18.02
2017-12-16T21:55:07.752Z,19.05
2017-12-16T21:57:36.197Z,18.73
2017-12-16T22:00:05.336Z,19.20
2017-12-16T22:02:34.937Z,15.57
2017-12-16T22:05:04.195Z,20.00
2017-12-16T22:07:32.365Z,16.67
2017-12-16T22:10:00.593Z,15.77
2017-12-16T22:12:28.778Z,18.08
2017-12-16T22:14:56.952Z,16.87
2017-12-16T22:17:26.753Z,20.90
2017-12-16T22:19:54.950Z,19.95
2017-12-16T22:22:23.414Z,15.88
2017-12-16T22:24:51.673Z,17.50
2017-12-16T22:27:19.909Z,13.62
2017-12-16T22:29:48.084Z,15.85
2017-12-16T22:32:16.245Z,18.58
2017-12-16T22:34:44.442Z,16.70
2017-12-16T22:37:12.594Z,19.92
2017-12-16T22:39:40.910Z,21.00
2017-12-16T22:42:09.122Z,17.27
2017-12-16T22:44:37.270Z,14.23
2017-12-16T22:47:06.851Z,19.12
2017-12-16T22:49:35.072Z,14.32
2017-12-16T22:52:03.214Z,15.50
2017-12-16T22:54:31.381Z,20.20
2017-12-16T22:56:59.538Z,20.55
2017-12-16T22:59:28.066Z,19.75
2017-12-16T23:01:56.218Z,17.45
2017-12-16T23:04:25.621Z,15.63
2017-12-16T23:06:56.014Z,18.70
2017-12-16T23:09:24.200Z,16.55
2017-12-16T23:11:52.374Z,15.68
2017-12-16T23:14:20.534Z,21.65
2017-12-16T23:16:52.293Z,16.90
2017-12-16T23:19:26.268Z,17.92
2017-12-16T23:21:54.457Z,17.60
2017-12-16T23:24:35.455Z,19.02
2017-12-16T23:27:03.639Z,20.27
2017-12-16T23:29:31.852Z,21.92
2017-12-16T23:32:00.084Z,20.27
2017-12-16T23:34:29.042Z,17.50
2017-12-16T23:36:57.250Z,16.58
2017-12-16T23:39:26.057Z,18.77
2017-12-16T23:41:54.998Z,22.27
2017-12-16T23:44:23.207Z,22.48
2017-12-16T23:46:52.865Z,21.52
2017-12-16T23:49:21.513Z,24.05
2017-12-16T23:51:53.537Z,23.08
2017-12-16T23:54:23.182Z,20.60
2017-12-16T23:56:53.204Z,19.70
2017-12-16T23:59:23.062Z,25.30
